Time;durP1;ratioP1;P1;durP2;ratioP2;P2;SDS_P1;SDS_P2;PMS_P1;PMS_P2;Temp;Humidity;BMP_temperature;BMP_pressure;BME280_temperature;BME280_humidity;BME280_pressure;Samples;Min_cycle;Max_cycle;Signal;HPM_P1;HPM_P2
2023/03/11 00:01:11;;;;;;;8.13;3.38;;;;;;;-1.46;100.00;100560.50;6180418;23;20389;-85
2023/03/11 00:03:37;;;;;;;8.25;3.70;;;;;;;-1.49;100.00;100546.59;6179919;23;20055;-84
2023/03/11 00:06:03;;;;;;;8.45;3.60;;;;;;;-1.65;100.00;100537.97;6179925;23;20012;-85
2023/03/11 00:08:29;;;;;;;6.55;2.80;;;;;;;-1.64;100.00;100551.00;6179658;23;20407;-85
2023/03/11 00:10:57;;;;;;;9.95;3.72;;;;;;;-1.71;100.00;100553.66;6152784;23;20005;-86
2023/03/11 00:13:23;;;;;;;10.88;3.60;;;;;;;-1.77;100.00;100555.44;6180130;23;20005;-84
2023/03/11 00:15:54;;;;;;;9.38;3.55;;;;;;;-1.78;100.00;100550.22;6152191;23;20084;-86
2023/03/11 00:18:20;;;;;;;10.25;3.90;;;;;;;-1.88;100.00;100548.53;6179004;23;20016;-84
2023/03/11 00:20:45;;;;;;;8.70;3.55;;;;;;;-1.90;100.00;100558.09;6179550;23;20001;-84
2023/03/11 00:23:12;;;;;;;11.90;4.10;;;;;;;-1.92;100.00;100568.56;6152636;23;20312;-85
2023/03/11 00:25:39;;;;;;;7.35;3.60;;;;;;;-2.02;100.00;100557.28;6151708;23;20423;-84
2023/03/11 00:28:09;;;;;;;6.53;3.03;;;;;;;-1.99;100.00;100561.63;6152482;23;20097;-85
2023/03/11 00:30:36;;;;;;;15.40;4.10;;;;;;;-2.12;100.00;100550.38;6180061;23;20009;-86
2023/03/11 00:33:01;;;;;;;9.75;3.70;;;;;;;-2.07;100.00;100572.09;6181028;23;20016;-83
2023/03/11 00:35:30;;;;;;;7.93;3.38;;;;;;;-2.05;100.00;100578.19;6179579;23;20009;-85
2023/03/11 00:37:58;;;;;;;9.95;3.55;;;;;;;-2.13;100.00;100577.34;6178171;23;20009;-85
2023/03/11 00:40:25;;;;;;;10.02;3.30;;;;;;;-2.10;100.00;100587.72;6177669;23;20020;-85
2023/03/11 00:42:51;;;;;;;9.60;3.47;;;;;;;-2.11;100.00;100587.75;6177669;23;20035;-86
2023/03/11 00:45:17;;;;;;;6.60;3.15;;;;;;;-2.12;100.00;100584.28;6152648;23;20111;-85
2023/03/11 00:47:43;;;;;;;11.45;3.72;;;;;;;-2.25;100.00;100569.56;6178425;23;20047;-84
2023/03/11 00:50:14;;;;;;;9.02;3.40;;;;;;;-2.21;100.00;100573.03;6178228;23;20020;-85
2023/03/11 00:52:40;;;;;;;8.43;3.67;;;;;;;-2.21;100.00;100583.44;6177771;23;20075;-86
2023/03/11 00:55:06;;;;;;;10.98;3.95;;;;;;;-2.22;100.00;100595.59;6178767;23;20032;-85
2023/03/11 00:57:31;;;;;;;10.10;4.20;;;;;;;-2.22;100.00;100582.56;6177707;23;20414;-84
2023/03/11 00:59:58;;;;;;;9.27;4.32;;;;;;;-2.22;100.00;100602.56;6178153;23;20095;-85
2023/03/11 01:02:23;;;;;;;8.02;3.88;;;;;;;-2.19;100.00;100602.56;6178595;23;20048;-86
2023/03/11 01:04:54;;;;;;;10.18;3.80;;;;;;;-2.20;100.00;100611.25;6178053;23;20009;-85
2023/03/11 01:07:19;;;;;;;8.02;3.15;;;;;;;-2.27;100.00;100595.59;6177578;23;20009;-86
2023/03/11 01:09:45;;;;;;;9.40;3.80;;;;;;;-2.17;100.00;100601.69;6177515;23;20119;-84
2023/03/11 01:12:10;;;;;;;10.18;3.53;;;;;;;-2.05;100.00;100622.50;6179617;23;20063;-85
2023/03/11 01:14:35;;;;;;;6.20;3.78;;;;;;;-2.00;100.00;100627.72;6178012;23;20032;-84
2023/03/11 01:17:01;;;;;;;8.07;3.58;;;;;;;-1.98;100.00;100628.56;6179742;23;20080;-85
2023/03/11 01:19:26;;;;;;;10.93;3.53;;;;;;;-1.96;100.00;100631.19;6156177;23;20032;-84
2023/03/11 01:21:51;;;;;;;8.95;3.95;;;;;;;-1.98;100.00;100625.09;6180765;23;20016;-85
2023/03/11 01:24:17;;;;;;;9.25;3.67;;;;;;;-1.95;100.00;100625.09;6178952;23;20078;-83
2023/03/11 01:26:43;;;;;;;6.63;3.35;;;;;;;-1.84;100.00;100642.44;6178643;23;20324;-83
2023/03/11 01:29:09;;;;;;;12.25;3.22;;;;;;;-1.93;100.00;100618.97;6181496;23;20387;-86
2023/03/11 01:31:34;;;;;;;9.82;3.65;;;;;;;-1.85;100.00;100639.81;6181758;23;20070;-85
2023/03/11 01:33:59;;;;;;;7.97;3.20;;;;;;;-1.85;100.00;100635.47;6183081;23;20307;-85
2023/03/11 01:36:25;;;;;;;8.05;4.05;;;;;;;-1.86;100.00;100638.09;6181410;23;20076;-84
2023/03/11 01:38:50;;;;;;;6.80;3.25;;;;;;;-1.92;100.00;100625.94;6151904;23;20483;-85
2023/03/11 01:41:15;;;;;;;7.45;3.30;;;;;;;-1.86;100.00;100636.34;6186188;23;20005;-84
2023/03/11 01:43:43;;;;;;;9.43;3.60;;;;;;;-1.87;100.00;100636.38;6189539;23;20008;-85
2023/03/11 01:46:18;;;;;;;7.70;3.20;;;;;;;-1.92;100.00;100636.38;6189049;23;20005;-83
2023/03/11 01:48:47;;;;;;;9.05;3.35;;;;;;;-1.96;100.00;100637.25;6187846;23;20005;-84
2023/03/11 01:51:14;;;;;;;5.57;3.00;;;;;;;-1.95;100.00;100645.94;6167307;23;20079;-83
2023/03/11 01:53:40;;;;;;;6.85;3.22;;;;;;;-2.00;100.00;100638.16;6199870;23;20005;-84
2023/03/11 01:56:05;;;;;;;8.48;3.33;;;;;;;-2.11;100.00;100634.69;6193481;23;20031;-85
2023/03/11 01:58:36;;;;;;;4.72;3.13;;;;;;;-2.08;100.00;100643.38;6159405;23;20013;-84
2023/03/11 02:01:02;;;;;;;8.05;3.50;;;;;;;-2.12;100.00;100636.44;6154864;23;20021;-84
2023/03/11 02:03:33;;;;;;;9.55;3.85;;;;;;;-2.19;100.00;100633.84;6154567;23;20020;-84
2023/03/11 02:06:01;;;;;;;5.97;3.13;;;;;;;-2.15;100.00;100640.78;6154083;23;20454;-84
2023/03/11 02:08:28;;;;;;;8.00;3.28;;;;;;;-2.31;100.00;100629.50;6150794;23;20005;-85
2023/03/11 02:10:55;;;;;;;13.88;3.90;;;;;;;-2.30;100.00;100632.13;6151834;23;20029;-85
2023/03/11 02:13:22;;;;;;;8.38;3.50;;;;;;;-2.27;100.00;100645.13;6151465;23;20012;-85
2023/03/11 02:15:47;;;;;;;7.63;3.75;;;;;;;-2.34;100.00;100629.50;6149705;23;20005;-85
2023/03/11 02:18:14;;;;;;;9.55;3.40;;;;;;;-2.31;100.00;100642.53;6149575;23;20487;-85
2023/03/11 02:21:25;;;;;;;9.20;3.67;;;;;;;-2.36;100.00;100646.91;6149158;23;20010;-84
2023/03/11 02:24:14;;;;;;;7.63;3.50;;;;;;;-2.34;100.00;100647.75;6029164;23;20007;-84
2023/03/11 02:27:01;;;;;;;8.20;3.55;;;;;;;-2.37;100.00;100643.44;6029497;23;20063;-84
2023/03/11 02:29:28;;;;;;;7.38;3.47;;;;;;;-2.37;100.00;100642.56;6029145;23;20679;-86
2023/03/11 02:31:55;;;;;;;9.48;3.88;;;;;;;-2.34;100.00;100650.34;6028583;23;20183;-84
2023/03/11 02:34:29;;;;;;;6.63;3.63;;;;;;;-2.33;100.00;100647.78;6029869;23;20079;-85
2023/03/11 02:36:58;;;;;;;8.95;3.45;;;;;;;-2.26;100.00;100651.22;6029307;23;20007;-84
2023/03/11 02:39:40;;;;;;;13.60;3.78;;;;;;;-2.26;100.00;100646.91;6028862;23;20046;-84
2023/03/11 02:42:17;;;;;;;7.40;3.70;;;;;;;-2.24;100.00;100648.63;6029058;23;20011;-85
2023/03/11 02:44:45;;;;;;;9.45;3.50;;;;;;;-2.28;100.00;100645.16;6028233;23;20450;-85
2023/03/11 02:47:11;;;;;;;9.68;3.75;;;;;;;-2.32;100.00;100648.63;6027293;23;20066;-85
2023/03/11 02:49:37;;;;;;;7.15;3.50;;;;;;;-2.33;100.00;100646.91;6027556;23;20011;-84
2023/03/11 02:52:03;;;;;;;9.10;3.63;;;;;;;-2.37;100.00;100642.56;6028005;23;20418;-85
2023/03/11 02:54:28;;;;;;;9.98;4.00;;;;;;;-2.39;100.00;100644.28;6085991;23;20006;-85
2023/03/11 02:56:54;;;;;;;7.60;3.47;;;;;;;-2.44;100.00;100639.09;6131619;23;20459;-83
2023/03/11 02:59:19;;;;;;;10.43;3.90;;;;;;;-2.51;100.00;100639.94;6179434;23;20005;-84
2023/03/11 03:01:45;;;;;;;12.20;4.00;;;;;;;-2.56;100.00;100636.50;6179813;23;20153;-85
2023/03/11 03:04:10;;;;;;;9.00;3.70;;;;;;;-2.60;100.00;100639.97;6179179;23;20001;-85
2023/03/11 03:06:35;;;;;;;8.90;4.20;;;;;;;-2.60;100.00;100642.56;6177350;23;20011;-86
2023/03/11 03:09:01;;;;;;;9.68;4.07;;;;;;;-2.73;100.00;100633.88;6178501;23;20015;-84
2023/03/11 03:11:26;;;;;;;13.00;4.03;;;;;;;-2.72;100.00;100639.97;6179648;23;20013;-84
2023/03/11 03:13:52;;;;;;;9.70;4.40;;;;;;;-2.71;100.00;100649.53;6178575;23;20009;-85
2023/03/11 03:16:17;;;;;;;11.45;4.20;;;;;;;-2.71;100.00;100653.00;6181432;23;20427;-84
2023/03/11 03:18:42;;;;;;;13.52;4.32;;;;;;;-2.71;100.00;100657.34;6181186;23;20001;-84
2023/03/11 03:21:08;;;;;;;9.15;4.28;;;;;;;-2.70;100.00;100662.56;6181088;23;20345;-84
2023/03/11 03:23:33;;;;;;;8.35;4.60;;;;;;;-2.70;100.00;100666.91;6178911;23;20021;-84
2023/03/11 03:26:00;;;;;;;7.80;4.32;;;;;;;-2.68;100.00;100671.22;6178846;23;20005;-85
2023/03/11 03:28:25;;;;;;;11.50;4.40;;;;;;;-2.69;100.00;100681.66;6179607;23;20423;-85
2023/03/11 03:30:50;;;;;;;10.48;4.90;;;;;;;-2.76;100.00;100678.16;6178715;23;20083;-85
2023/03/11 03:33:15;;;;;;;9.45;4.25;;;;;;;-2.78;100.00;100680.78;6179699;23;20083;-85
2023/03/11 03:35:44;;;;;;;10.13;4.47;;;;;;;-2.82;100.00;100691.19;6178819;23;20029;-85
2023/03/11 03:38:10;;;;;;;9.32;4.35;;;;;;;-2.86;100.00;100692.94;6177810;23;20099;-84
2023/03/11 03:40:36;;;;;;;12.75;4.82;;;;;;;-2.96;100.00;100687.72;6176672;23;20092;-85
2023/03/11 03:43:01;;;;;;;10.43;4.18;;;;;;;-2.94;100.00;100706.81;6178709;23;20009;-84
2023/03/11 03:45:27;;;;;;;9.93;4.93;;;;;;;-2.93;100.00;100698.13;6179754;23;20013;-84
2023/03/11 03:47:52;;;;;;;14.60;4.75;;;;;;;-2.97;100.00;100706.78;6151101;23;20419;-84
2023/03/11 03:50:17;;;;;;;10.13;5.00;;;;;;;-2.99;100.00;100703.34;6182086;23;20016;-85
2023/03/11 03:52:43;;;;;;;7.40;4.13;;;;;;;-2.98;100.00;100708.53;6185162;23;20004;-84
2023/03/11 03:55:08;;;;;;;8.90;4.32;;;;;;;-3.08;100.00;100699.84;6191562;23;20005;-84
2023/03/11 03:57:34;;;;;;;10.32;4.78;;;;;;;-3.02;100.00;100717.19;6183517;23;20019;-84
2023/03/11 03:59:59;;;;;;;11.00;4.57;;;;;;;-3.08;100.00;100712.84;6185351;23;20001;-84
2023/03/11 04:02:24;;;;;;;9.35;4.35;;;;;;;-3.10;100.00;100704.16;6200952;23;20040;-84
2023/03/11 04:04:50;;;;;;;8.82;4.47;;;;;;;-3.04;100.00;100725.03;6203162;23;20024;-85
2023/03/11 04:07:15;;;;;;;8.55;4.32;;;;;;;-3.11;100.00;100701.56;6200057;23;20005;-85
2023/03/11 04:09:42;;;;;;;9.02;4.78;;;;;;;-3.01;100.00;100719.81;6182594;23;20434;-85
2023/03/11 04:12:13;;;;;;;11.95;4.80;;;;;;;-2.98;100.00;100716.34;6180806;23;20075;-84
2023/03/11 04:14:38;;;;;;;9.75;4.43;;;;;;;-2.94;100.00;100712.00;6179485;23;20009;-84
2023/03/11 04:17:03;;;;;;;10.40;4.80;;;;;;;-2.91;100.00;100717.25;6178555;23;20008;-84
2023/03/11 04:19:29;;;;;;;11.98;4.85;;;;;;;-2.99;100.00;100706.81;6180389;23;20055;-84
2023/03/11 04:21:54;;;;;;;8.68;4.30;;;;;;;-2.91;100.00;100715.50;6179996;23;20083;-85
2023/03/11 04:24:19;;;;;;;9.68;4.53;;;;;;;-2.84;100.00;100726.81;6180141;23;20001;-85
2023/03/11 04:26:45;;;;;;;8.52;4.40;;;;;;;-2.93;100.00;100718.94;6179478;23;20315;-84
2023/03/11 04:29:10;;;;;;;8.63;4.40;;;;;;;-3.01;100.00;100704.19;6179232;23;20048;-85
2023/03/11 04:31:35;;;;;;;10.55;4.60;;;;;;;-2.94;100.00;100714.63;6180505;23;20005;-85
2023/03/11 04:34:01;;;;;;;11.90;4.50;;;;;;;-2.83;100.00;100723.34;6181330;23;20012;-85
2023/03/11 04:36:26;;;;;;;10.68;4.35;;;;;;;-2.88;100.00;100719.84;6182046;23;20013;-85
2023/03/11 04:38:55;;;;;;;10.13;4.18;;;;;;;-2.90;100.00;100730.25;6181889;23;20005;-84
2023/03/11 04:41:20;;;;;;;9.20;4.43;;;;;;;-2.88;100.00;100732.88;6179622;23;20001;-84
2023/03/11 04:43:45;;;;;;;9.27;4.53;;;;;;;-2.91;100.00;100731.13;6181246;23;20412;-84
2023/03/11 04:46:11;;;;;;;8.13;4.97;;;;;;;-2.98;100.00;100724.16;6180843;23;20012;-83
2023/03/11 04:48:36;;;;;;;10.73;4.72;;;;;;;-2.98;100.00;100723.28;6178585;23;20012;-85
2023/03/11 04:51:02;;;;;;;11.30;5.03;;;;;;;-3.02;100.00;100736.28;6178632;23;20315;-85
2023/03/11 04:53:27;;;;;;;10.55;5.00;;;;;;;-3.04;100.00;100732.84;6178881;23;20016;-85
2023/03/11 04:55:52;;;;;;;13.00;4.93;;;;;;;-3.06;100.00;100741.50;6177337;23;20008;-85
2023/03/11 04:58:18;;;;;;;11.30;4.85;;;;;;;-3.07;100.00;100734.56;6178070;23;20092;-84
2023/03/11 05:00:43;;;;;;;9.60;5.25;;;;;;;-3.12;100.00;100731.06;6177562;23;20001;-85
2023/03/11 05:03:09;;;;;;;10.32;4.72;;;;;;;-3.15;100.00;100728.44;6178875;23;20020;-83
2023/03/11 05:05:34;;;;;;;12.07;5.13;;;;;;;-3.21;100.00;100726.72;6177859;23;20024;-83
2023/03/11 05:08:00;;;;;;;12.13;5.07;;;;;;;-3.18;100.00;100734.50;6178876;23;20001;-84
2023/03/11 05:10:25;;;;;;;11.65;5.15;;;;;;;-3.22;100.00;100737.97;6152922;23;20482;-84
2023/03/11 05:12:51;;;;;;;10.10;4.97;;;;;;;-3.08;100.00;100738.91;6177055;23;20039;-85
2023/03/11 05:15:17;;;;;;;11.60;5.03;;;;;;;-2.73;100.00;100745.03;6179826;23;20001;-85
2023/03/11 05:17:42;;;;;;;10.30;4.93;;;;;;;-2.71;100.00;100749.41;6178702;23;20016;-84
2023/03/11 05:20:09;;;;;;;8.35;4.38;;;;;;;-2.75;100.00;100747.66;6180126;23;20009;-84
2023/03/11 05:22:34;;;;;;;11.07;4.72;;;;;;;-2.82;100.00;100746.75;6176950;23;20119;-85
2023/03/11 05:25:00;;;;;;;10.73;5.18;;;;;;;-3.01;100.00;100724.13;6178136;23;20021;-84
2023/03/11 05:27:25;;;;;;;11.18;4.95;;;;;;;-2.94;100.00;100748.47;6176442;23;20008;-85
2023/03/11 05:29:50;;;;;;;9.82;5.25;;;;;;;-3.06;100.00;100751.91;6177566;23;20005;-85
2023/03/11 05:32:17;;;;;;;8.55;5.60;;;;;;;-3.07;100.00;100756.25;6178851;23;20489;-84
2023/03/11 05:34:43;;;;;;;11.63;5.45;;;;;;;-3.08;100.00;100764.06;6177763;23;20004;-84
2023/03/11 05:37:08;;;;;;;9.48;6.25;;;;;;;-3.12;100.00;100764.91;6178639;23;20379;-85
2023/03/11 05:39:34;;;;;;;11.93;6.05;;;;;;;-3.15;100.00;100767.50;6176644;23;20288;-84
2023/03/11 05:41:59;;;;;;;9.68;6.22;;;;;;;-3.17;100.00;100774.44;6180097;23;20057;-84
2023/03/11 05:44:25;;;;;;;12.20;6.30;;;;;;;-3.18;100.00;100776.16;6178440;23;20511;-85
2023/03/11 05:46:50;;;;;;;13.20;6.15;;;;;;;-3.21;100.00;100772.69;6177116;23;20427;-84
2023/03/11 05:49:15;;;;;;;9.65;5.53;;;;;;;-3.22;100.00;100783.94;6179536;23;20054;-85
2023/03/11 05:51:41;;;;;;;12.85;6.85;;;;;;;-3.20;100.00;100774.44;6179417;23;20076;-85
2023/03/11 05:54:13;;;;;;;9.52;6.18;;;;;;;-3.24;100.00;100776.16;6179748;23;20009;-85
2023/03/11 05:56:42;;;;;;;10.75;6.80;;;;;;;-3.26;100.00;100780.47;6178135;23;20013;-85
2023/03/11 05:59:08;;;;;;;16.08;8.00;;;;;;;-3.36;100.00;100784.75;6188478;23;19997;-83
2023/03/11 06:01:34;;;;;;;17.88;8.82;;;;;;;-3.36;100.00;100789.97;6203038;23;20353;-84
2023/03/11 06:04:00;;;;;;;15.30;7.97;;;;;;;-3.44;100.00;100783.84;6204579;23;20074;-86
2023/03/11 06:06:25;;;;;;;16.40;9.43;;;;;;;-3.42;100.00;100791.69;6192012;23;20021;-85
2023/03/11 06:08:50;;;;;;;16.67;9.00;;;;;;;-3.47;100.00;100788.16;6183079;23;20012;-85
2023/03/11 06:11:17;;;;;;;16.83;9.07;;;;;;;-3.51;100.00;100788.16;6180590;23;20012;-85
2023/03/11 06:13:42;;;;;;;17.27;9.95;;;;;;;-3.50;100.00;100796.84;6197430;23;20059;-84
2023/03/11 06:16:07;;;;;;;19.77;9.23;;;;;;;-3.51;100.00;100782.97;6203337;23;20032;-82
2023/03/11 06:18:33;;;;;;;16.90;9.48;;;;;;;-3.54;100.00;100798.56;6201340;23;20020;-83
2023/03/11 06:20:59;;;;;;;17.75;8.88;;;;;;;-3.48;100.00;100802.91;6155428;23;20457;-84
2023/03/11 06:23:25;;;;;;;14.85;8.30;;;;;;;-3.53;100.00;100802.88;6182306;23;20001;-84
2023/03/11 06:26:01;;;;;;;18.23;8.45;;;;;;;-3.51;100.00;100795.13;6179128;23;20419;-84
2023/03/11 06:28:28;;;;;;;16.45;8.88;;;;;;;-3.47;100.00;100807.25;6180546;23;20108;-84
2023/03/11 06:30:55;;;;;;;15.85;9.30;;;;;;;-3.49;100.00;100805.50;6180167;23;20494;-84
2023/03/11 06:33:22;;;;;;;20.17;9.38;;;;;;;-3.56;100.00;100795.06;6180442;23;20234;-84
2023/03/11 06:35:57;;;;;;;16.08;8.82;;;;;;;-3.48;100.00;100810.72;6177631;23;20073;-85
2023/03/11 06:38:22;;;;;;;15.27;8.57;;;;;;;-3.46;100.00;100822.03;6151424;23;20001;-84
2023/03/11 06:40:48;;;;;;;16.17;8.55;;;;;;;-3.51;100.00;100811.59;6175266;23;20009;-84
2023/03/11 06:43:13;;;;;;;16.45;10.00;;;;;;;-3.41;100.00;100828.13;6178099;23;20549;-85
2023/03/11 06:45:38;;;;;;;14.57;9.13;;;;;;;-3.38;100.00;100837.69;6176073;23;20015;-85
2023/03/11 06:48:04;;;;;;;16.17;9.27;;;;;;;-3.36;100.00;100835.94;6177299;23;20008;-86
2023/03/11 06:50:29;;;;;;;17.25;9.15;;;;;;;-3.15;100.00;100840.41;6175349;23;20024;-85
2023/03/11 06:52:54;;;;;;;11.77;8.95;;;;;;;-2.93;100.00;100839.63;6175259;23;20009;-85
2023/03/11 06:55:20;;;;;;;16.25;8.45;;;;;;;-2.54;100.00;100858.88;6148784;23;20063;-82
2023/03/11 06:57:45;;;;;;;16.40;8.05;;;;;;;-2.33;100.00;100858.06;6177635;23;20013;-84
2023/03/11 07:00:11;;;;;;;13.50;7.25;;;;;;;-2.01;100.00;100839.81;6178225;23;20043;-85
2023/03/11 07:02:37;;;;;;;9.80;6.70;;;;;;;-2.09;100.00;100847.66;6181871;23;20011;-86
2023/03/11 07:05:02;;;;;;;12.05;6.85;;;;;;;-2.03;100.00;100871.13;6183268;23;20037;-85
2023/03/11 07:07:28;;;;;;;10.13;6.75;;;;;;;-2.14;100.00;100864.16;6179055;23;20004;-85
2023/03/11 07:09:59;;;;;;;13.23;7.10;;;;;;;-2.21;100.00;100871.13;6175900;23;20364;-86
2023/03/11 07:12:24;;;;;;;11.63;7.63;;;;;;;-2.16;100.00;100886.78;6175089;23;20009;-86
2023/03/11 07:14:55;;;;;;;11.27;6.97;;;;;;;-2.20;100.00;100890.25;6177556;23;20005;-85
2023/03/11 07:17:20;;;;;;;11.38;7.70;;;;;;;-2.22;100.00;100892.81;6151942;23;20016;-84
2023/03/11 07:19:45;;;;;;;10.93;7.80;;;;;;;-2.24;100.00;100893.72;6176545;23;20557;-85
2023/03/11 07:22:19;;;;;;;9.57;7.43;;;;;;;-2.22;100.00;100894.56;6176539;23;20020;-96
2023/03/11 07:24:46;;;;;;;8.85;6.78;;;;;;;-2.21;100.00;100896.31;6148272;23;20016;-82
2023/03/11 07:27:11;;;;;;;11.73;6.85;;;;;;;-2.27;100.00;100886.72;6176588;23;20012;-84
2023/03/11 07:29:36;;;;;;;13.93;6.82;;;;;;;-2.20;100.00;100898.94;6176197;23;20292;-84
2023/03/11 07:32:02;;;;;;;7.93;6.78;;;;;;;-2.17;100.00;100901.53;6176961;23;20009;-84
2023/03/11 07:34:27;;;;;;;13.35;7.07;;;;;;;-2.15;100.00;100902.41;6175068;23;20066;-84
2023/03/11 07:36:53;;;;;;;12.52;7.70;;;;;;;-2.20;100.00;100893.72;6176272;23;20009;-84
2023/03/11 07:39:18;;;;;;;12.20;8.13;;;;;;;-2.15;100.00;100905.00;6176845;23;20016;-84
2023/03/11 07:41:44;;;;;;;15.38;8.50;;;;;;;-2.13;100.00;100907.63;6177439;23;20080;-84
2023/03/11 07:44:14;;;;;;;15.15;8.38;;;;;;;-2.12;100.00;100917.19;6179178;23;20084;-82
2023/03/11 07:46:40;;;;;;;13.15;7.85;;;;;;;-2.11;100.00;100903.28;6179044;23;20001;-84
2023/03/11 07:49:06;;;;;;;13.68;7.40;;;;;;;-2.07;100.00;100899.81;6180417;23;20011;-84
2023/03/11 07:51:34;;;;;;;11.65;7.15;;;;;;;-2.04;100.00;100903.31;6178361;23;20015;-83
2023/03/11 07:54:00;;;;;;;11.35;7.47;;;;;;;-2.01;100.00;100915.47;6181590;23;20340;-83
2023/03/11 07:56:30;;;;;;;10.32;6.85;;;;;;;-1.97;100.00;100918.94;6178628;23;20165;-83
2023/03/11 07:58:57;;;;;;;11.02;6.55;;;;;;;-1.95;100.00;100923.31;6180045;23;20009;-81
2023/03/11 08:01:24;;;;;;;12.18;6.30;;;;;;;-1.84;100.00;100924.22;6183659;23;20139;-83
2023/03/11 08:03:55;;;;;;;13.57;6.90;;;;;;;-1.87;100.00;100916.38;6158510;23;20052;-82
2023/03/11 08:06:26;;;;;;;10.82;6.65;;;;;;;-1.73;100.00;100929.41;6183621;23;20009;-83
2023/03/11 08:08:52;;;;;;;11.75;6.20;;;;;;;-1.69;100.00;100933.78;6177714;23;20035;-84
2023/03/11 08:11:19;;;;;;;8.82;5.55;;;;;;;-1.63;100.00;100931.19;6178192;23;20017;-83
2023/03/11 08:13:45;;;;;;;12.95;6.97;;;;;;;-1.63;100.00;100939.00;6151923;23;20454;-83
2023/03/11 08:16:14;;;;;;;10.50;6.30;;;;;;;-1.51;100.00;100927.69;6177097;23;20016;-83
2023/03/11 08:18:39;;;;;;;11.60;6.07;;;;;;;-1.44;100.00;100936.38;6178792;23;20013;-82
2023/03/11 08:21:07;;;;;;;8.13;4.03;;;;;;;-1.25;100.00;100940.75;6188184;23;20056;-79
2023/03/11 08:23:33;;;;;;;6.60;3.38;;;;;;;-0.76;100.00;100931.03;6193149;23;20429;-81
2023/03/11 08:26:03;;;;;;;7.82;3.65;;;;;;;-0.12;100.00;100940.38;6193356;23;20001;-83
2023/03/11 08:28:28;;;;;;;8.35;3.78;;;;;;;0.84;100.00;100935.28;6186389;23;20481;-82
2023/03/11 08:30:53;;;;;;;8.55;4.20;;;;;;;1.81;100.00;100927.16;6178815;23;20005;-83
2023/03/11 08:33:19;;;;;;;7.15;4.00;;;;;;;3.23;100.00;100930.09;6178370;23;20032;-81
2023/03/11 08:35:44;;;;;;;7.65;3.33;;;;;;;3.94;98.28;100934.75;6175569;23;20008;-81
2023/03/11 08:38:09;;;;;;;5.45;2.58;;;;;;;4.74;89.64;100934.59;6176000;23;20012;-81
2023/03/11 08:40:35;;;;;;;7.15;2.60;;;;;;;5.56;83.41;100930.63;6176851;23;20001;-82
2023/03/11 08:43:00;;;;;;;5.10;2.50;;;;;;;5.90;83.19;100933.16;6176958;23;20076;-82
2023/03/11 08:45:25;;;;;;;7.05;2.55;;;;;;;6.49;76.61;100935.72;6176563;23;20460;-82
2023/03/11 08:47:50;;;;;;;5.82;2.72;;;;;;;7.23;75.13;100934.09;6175848;23;20009;-81
2023/03/11 08:50:17;;;;;;;4.28;2.17;;;;;;;7.67;74.43;100941.34;6177594;23;20577;-81
2023/03/11 08:52:43;;;;;;;5.35;2.28;;;;;;;7.78;66.23;100943.59;6177499;23;20009;-82
2023/03/11 08:55:12;;;;;;;5.55;2.03;;;;;;;7.88;65.23;100950.25;6177011;23;20177;-81
2023/03/11 08:57:38;;;;;;;4.43;2.00;;;;;;;8.00;67.90;100949.78;6176540;23;20431;-82
2023/03/11 09:00:06;;;;;;;4.72;1.80;;;;;;;7.99;63.82;100956.88;6175567;23;20008;-82
2023/03/11 09:02:31;;;;;;;6.05;2.00;;;;;;;7.65;65.02;100959.94;6175364;23;20116;-82
2023/03/11 09:04:56;;;;;;;3.60;1.70;;;;;;;7.30;63.97;100958.56;6174593;23;20033;-82
2023/03/11 09:07:22;;;;;;;5.22;1.83;;;;;;;7.05;66.73;100968.28;6176112;23;20005;-81
2023/03/11 09:09:47;;;;;;;4.90;1.70;;;;;;;7.38;66.87;100960.94;6175613;23;20360;-82
2023/03/11 09:12:13;;;;;;;2.53;1.40;;;;;;;7.93;62.97;100965.06;6176635;23;20450;-81
2023/03/11 09:14:42;;;;;;;8.07;2.17;;;;;;;8.40;60.38;100962.41;6175545;23;20101;-81
2023/03/11 09:17:09;;;;;;;2.67;1.50;;;;;;;9.03;57.32;100950.94;6149952;23;20020;-81
2023/03/11 09:19:35;;;;;;;4.43;1.23;;;;;;;10.06;56.16;100963.16;6177765;23;20008;-81
2023/03/11 09:22:00;;;;;;;4.05;1.27;;;;;;;10.20;51.03;100968.72;6175898;23;20012;-80
2023/03/11 09:24:26;;;;;;;3.35;1.40;;;;;;;10.39;54.65;100960.75;6175263;23;20008;-82
2023/03/11 09:26:51;;;;;;;3.08;1.50;;;;;;;10.12;53.25;100970.88;6174120;23;20394;-81
2023/03/11 09:29:17;;;;;;;4.45;1.50;;;;;;;9.80;52.34;100973.22;6176889;23;20005;-82
2023/03/11 09:31:42;;;;;;;4.97;1.48;;;;;;;10.02;52.18;100977.53;6173150;23;20005;-83
2023/03/11 09:34:07;;;;;;;4.30;1.50;;;;;;;11.18;52.01;100964.75;6174398;23;20028;-83
2023/03/11 09:36:32;;;;;;;3.22;1.52;;;;;;;12.36;47.88;100987.78;6173093;23;20466;-82
2023/03/11 09:38:59;;;;;;;3.30;1.30;;;;;;;12.89;44.95;100989.22;6176239;23;20019;-82
2023/03/11 09:41:54;;;;;;;1.98;1.00;;;;;;;14.02;53.83;100984.19;6148106;23;20473;-81
2023/03/11 09:44:26;;;;;;;3.10;1.10;;;;;;;13.38;43.23;100985.47;6173115;23;20035;-81
2023/03/11 09:47:04;;;;;;;3.03;1.10;;;;;;;12.18;43.61;100986.16;6171700;23;20063;-82
2023/03/11 09:49:29;;;;;;;3.28;1.10;;;;;;;11.40;46.16;100983.16;6175090;23;20271;-83
2023/03/11 09:52:29;;;;;;;2.67;1.10;;;;;;;12.07;56.50;100986.72;6176573;23;20573;-82
2023/03/11 09:54:55;;;;;;;4.05;1.63;;;;;;;12.22;45.11;100982.38;6135672;23;20431;-83
2023/03/11 09:57:27;;;;;;;3.80;1.40;;;;;;;12.80;45.59;100980.88;6174369;23;20027;-83
2023/03/11 09:59:53;;;;;;;3.55;1.17;;;;;;;12.67;42.47;100992.25;6175194;23;20013;-82
2023/03/11 10:02:21;;;;;;;4.53;1.25;;;;;;;11.99;43.24;100988.09;6174440;23;20029;-82
2023/03/11 10:05:11;;;;;;;3.70;1.10;;;;;;;11.94;50.50;100991.88;6174667;23;20158;-84
2023/03/11 10:07:40;;;;;;;3.65;1.30;;;;;;;11.13;46.54;100981.94;6174315;23;20607;-83
2023/03/11 10:10:10;;;;;;;4.20;1.05;;;;;;;10.41;45.13;100988.16;6176797;23;20008;-82
2023/03/11 10:13:13;;;;;;;3.03;1.05;;;;;;;9.66;48.13;100987.13;6181176;23;20005;-81
2023/03/11 10:16:07;;;;;;;3.58;1.10;;;;;;;8.89;52.33;100986.03;6196104;23;20009;-96
2023/03/11 10:18:59;;;;;;;3.50;1.10;;;;;;;8.43;52.78;100999.38;6192878;23;20028;-82
2023/03/11 10:21:30;;;;;;;4.63;1.38;;;;;;;7.63;50.46;100998.00;6181967;23;20005;-81
2023/03/11 10:24:34;;;;;;;4.95;1.45;;;;;;;6.97;50.89;101002.94;6176282;23;20012;-83
2023/03/11 10:27:13;;;;;;;4.93;1.55;;;;;;;6.39;53.46;101005.66;6177660;23;20107;-82
2023/03/11 10:29:55;;;;;;;2.78;1.67;;;;;;;6.02;56.93;101003.28;6177185;23;20009;-82
2023/03/11 10:32:26;;;;;;;4.45;1.33;;;;;;;5.95;58.18;101012.28;6178143;23;20083;-82
2023/03/11 10:35:03;;;;;;;5.03;1.27;;;;;;;6.05;55.10;101011.09;6177053;23;20008;-82
2023/03/11 10:37:37;;;;;;;4.82;1.40;;;;;;;6.22;53.62;101013.25;6180216;23;20012;-80
2023/03/11 10:40:36;;;;;;;4.63;1.55;;;;;;;6.73;58.53;101010.78;6178257;23;20001;-81
2023/03/11 10:43:08;;;;;;;4.63;1.60;;;;;;;6.30;52.40;101013.00;6153107;23;20845;-82
2023/03/11 10:45:42;;;;;;;3.17;1.45;;;;;;;6.51;55.78;101017.63;6184072;23;20283;-80
2023/03/11 10:48:08;;;;;;;;;;;;;;;7.29;64.10;101016.88;6189658;23;20446;-81
2023/03/11 10:50:41;;;;;;;2.53;1.30;;;;;;;7.21;51.65;101019.78;6187881;23;19904;-80
2023/03/11 10:53:08;;;;;;;3.28;1.50;;;;;;;7.65;49.78;101017.34;6181047;23;20506;-81
2023/03/11 10:55:43;;;;;;;4.15;1.50;;;;;;;7.27;52.93;101018.69;6174977;23;20331;-81
2023/03/11 10:58:31;;;;;;;3.10;1.60;;;;;;;7.01;55.25;101019.56;6179429;23;20044;-88
2023/03/11 11:01:21;;;;;;;7.22;1.60;;;;;;;6.79;53.69;101015.00;6174024;23;20056;-80
2023/03/11 11:03:49;;;;;;;5.40;1.70;;;;;;;6.99;54.12;101009.91;6171983;23;20254;-86
2023/03/11 11:06:32;;;;;;;3.90;1.38;;;;;;;7.69;56.27;101011.00;6175941;23;20024;-82
2023/03/11 11:09:18;;;;;;;2.85;1.50;;;;;;;8.79;55.03;101016.56;6175177;23;20309;-80
2023/03/11 11:12:10;;;;;;;5.45;1.88;;;;;;;9.43;53.58;101008.53;6175092;23;20059;-81
2023/03/11 11:14:46;;;;;;;3.20;1.60;;;;;;;8.98;51.50;101014.84;6174762;23;20009;-82
2023/03/11 11:17:18;;;;;;;3.90;1.50;;;;;;;8.55;51.17;101016.59;6175659;23;20043;-82
2023/03/11 11:19:47;;;;;;;3.03;1.48;;;;;;;8.49;51.34;101014.22;6176106;23;20012;-82
2023/03/11 11:22:19;;;;;;;2.97;1.50;;;;;;;8.68;49.41;101027.59;6177781;23;20013;-82